Bei Facebook empfehlenBei Twitter postenGoogle plusPinterest

Das Wetter im Erzgebirge am 15.11.2015

Wetter und Klima am 15.11.2015 Holzhau im Erzgebirge (630m ü.NN)
Letzte gemessene Temperatur und Uhrzeit der Messung23:45:00 Uhr9.30 °C
Temperatur (Maximum / Höchstwert) und Uhrzeit der Messung23:45:00 Uhr9.30 °C
Temperatur (Minimum / Tiefstwert) und Uhrzeit der Messung04:30:003.50 °C
Errechneter Absolutwert der Temperaturschwankungen zwischen Tmin und Tmax des Tages5.80 K
Errechnete Tagesmitteltemperatur6.96458 °C
Gesamt - Niederschlag des Tages (in flüssiger Form)8.29 Liter / m²
Luftdruck (Maximum / Höchstwert) und Zeitpunkt der Messung00:00:00 Uhr1014.40 hPa
Luftdruck (Minimum / Tiefstwert) und Zeitpunkt der Messung12:15:00 Uhr1004.10 hPa
Errechneter Absolutwert der Luftdruckschwankungen des Tages10.30 hPa
Höchste gemessene Windgeschwindigkeit und Uhrzeit der Messung14:00:00 Uhr183.60 km/h
Errechnete Windhäufigkeit in Relation zu den Messwerten des Tages75.00000 %
Niedrigste Windkühle (Windchill) und Zeitpunkt der Messung14:00:00 Uhr-0.50 °C
Taupunkt (Maximum / Höchstwert) und Uhrzeit der Messung23:45:00 Uhr8.70 °C
Taupunkt (Minimum / Tiefstwert) und Uhrzeit der Messung04:30:002.50 °C
Anzahl der automatisch eingelesenen Messwerte 96

Detaillierte Wetter- und Klima- Messwerte für den 15.11.2015 in Holzhau im Erzgebirge (630m ü.NN)
ZeitTemperaturLuftdruckRel. LuftfeuchteWindWindrichtungWindchillTaupunktNiederschlag l/m²
23:45:009.30 °C1008.50 hPa96.00 %14.76 km/hNNW7.10 °C8.70 °C8.29
23:30:009.30 °C1008.40 hPa96.00 %13.32 km/hWNW7.30 °C8.70 °C8.29
23:15:009.30 °C1008.40 hPa96.00 %15.84 km/hNNW6.90 °C8.70 °C8.29
23:00:009.30 °C1008.40 hPa96.00 %9.72 km/hWNW7.80 °C8.70 °C8.29
22:45:009.30 °C1008.20 hPa96.00 %10.44 km/hN7.70 °C8.70 °C8.29
22:30:009.30 °C1008.00 hPa96.00 %5.04 km/hWNW8.90 °C8.70 °C8.29
22:15:009.30 °C1008.00 hPa96.00 %3.96 km/hW9.30 °C8.70 °C7.77
22:00:009.30 °C1007.70 hPa96.00 %2.88 km/hWNW9.30 °C8.70 °C7.77
21:45:009.30 °C1007.60 hPa96.00 %11.16 km/hWNW7.60 °C8.70 °C7.77
21:30:009.30 °C1007.50 hPa96.00 %9.00 km/hW8.00 °C8.70 °C7.77
21:15:009.30 °C1007.50 hPa96.00 %2.88 km/hWNW9.30 °C8.70 °C7.25
21:00:009.30 °C1007.20 hPa96.00 %7.20 km/hNW8.40 °C8.70 °C7.25
20:45:009.30 °C1007.30 hPa96.00 %4.68 km/hWNW9.30 °C8.70 °C7.25
20:30:009.30 °C1007.00 hPa96.00 %9.36 km/hWNW7.90 °C8.70 °C7.25
20:15:009.30 °C1006.80 hPa96.00 %12.96 km/hWNW7.30 °C8.70 °C7.25
20:00:009.30 °C1006.60 hPa96.00 %7.56 km/hWNW8.30 °C8.70 °C7.25
19:45:009.30 °C1006.80 hPa96.00 %6.12 km/hWNW8.60 °C8.70 °C7.25
19:30:009.30 °C1006.60 hPa96.00 %8.28 km/hNW8.10 °C8.70 °C7.25
19:15:009.30 °C1006.40 hPa96.00 %8.70 °C7.25
19:00:009.30 °C1006.20 hPa96.00 %8.70 °C7.25
18:45:009.30 °C1006.10 hPa96.00 %8.64 km/hWNW8.10 °C8.70 °C7.25
18:30:009.20 °C1006.10 hPa96.00 %23.76 km/hWNW6.00 °C8.60 °C7.25
18:15:009.10 °C1005.70 hPa96.00 %3.96 km/hWNW9.10 °C8.50 °C7.25
18:00:009.10 °C1005.70 hPa96.00 %7.20 km/hNNW8.10 °C8.50 °C7.25
17:45:009.10 °C1005.60 hPa96.00 %14.76 km/hWNW6.80 °C8.50 °C7.25
17:30:009.10 °C1005.30 hPa96.00 %6.12 km/hWNW8.40 °C8.50 °C7.25
17:15:009.00 °C1005.10 hPa96.00 %3.60 km/hNNW9.00 °C8.40 °C7.25
17:00:008.90 °C1005.00 hPa96.00 %9.00 km/hNW7.50 °C8.30 °C7.25
16:45:008.90 °C1004.90 hPa96.00 %15.12 km/hW6.50 °C8.30 °C7.25
16:30:008.80 °C1004.80 hPa95.00 %7.92 km/hW7.60 °C8.00 °C7.25
16:15:008.80 °C1004.70 hPa95.00 %8.00 °C7.25
16:00:008.80 °C1004.70 hPa95.00 %10.80 km/hSW7.10 °C8.00 °C7.25
15:45:008.80 °C1004.80 hPa95.00 %4.32 km/hW8.80 °C8.00 °C7.25
15:30:008.70 °C1004.80 hPa95.00 %16.56 km/hWNW6.10 °C7.90 °C7.25
15:15:008.70 °C1004.90 hPa95.00 %10.08 km/hWNW7.10 °C7.90 °C7.25
15:00:008.60 °C1005.00 hPa95.00 %9.72 km/hWSW7.00 °C7.80 °C7.25
14:45:008.50 °C1004.90 hPa95.00 %20.52 km/hSSW5.40 °C7.70 °C7.25
14:30:008.40 °C1004.70 hPa95.00 %15.48 km/hWNW5.90 °C7.60 °C7.25
14:15:008.30 °C1005.00 hPa95.00 %7.92 km/hW7.00 °C7.50 °C7.25
14:00:008.20 °C1004.80 hPa95.00 %183.60 km/hWSW-0.50 °C7.40 °C7.25
13:45:008.10 °C1004.60 hPa95.00 %11.16 km/hWNW6.20 °C7.30 °C7.25
13:30:008.10 °C1004.30 hPa95.00 %10.44 km/hW6.30 °C7.30 °C7.25
13:15:007.90 °C1004.40 hPa95.00 %15.48 km/hNW5.30 °C7.10 °C7.25
13:00:007.90 °C1004.30 hPa95.00 %24.48 km/hWSW4.30 °C7.10 °C7.25
12:45:007.80 °C1004.30 hPa95.00 %4.32 km/hW7.80 °C7.10 °C7.25
12:30:007.60 °C1004.20 hPa95.00 %15.12 km/hSW4.90 °C6.90 °C7.25
12:15:007.60 °C1004.10 hPa95.00 %8.28 km/hSW6.10 °C6.90 °C7.25
12:00:007.60 °C1004.20 hPa95.00 %7.20 km/hNW6.40 °C6.90 °C7.25
11:45:007.50 °C1004.50 hPa95.00 %12.24 km/hWNW5.20 °C6.80 °C7.25
11:30:007.40 °C1004.80 hPa95.00 %9.72 km/hW5.60 °C6.70 °C7.25
11:15:007.30 °C1004.90 hPa95.00 %6.12 km/hW6.30 °C6.60 °C7.25
11:00:007.20 °C1004.90 hPa95.00 %7.92 km/hW5.70 °C6.50 °C7.25
10:45:007.10 °C1004.50 hPa95.00 %10.08 km/hWNW5.20 °C6.40 °C7.25
10:30:007.10 °C1005.10 hPa95.00 %9.36 km/hWNW5.30 °C6.40 °C7.25
10:15:006.90 °C1005.10 hPa95.00 %4.32 km/hWNW6.90 °C6.20 °C7.25
10:00:006.90 °C1005.30 hPa95.00 %9.36 km/hWSW5.10 °C6.20 °C7.25
09:45:006.80 °C1005.50 hPa95.00 %6.10 °C6.73
09:30:006.60 °C1005.60 hPa95.00 %3.96 km/hNW6.60 °C5.90 °C6.73
09:15:006.50 °C1005.70 hPa95.00 %5.76 km/hSW5.50 °C5.80 °C6.21
09:00:006.40 °C1005.80 hPa95.00 %11.16 km/hSW4.10 °C5.70 °C6.21
08:45:006.20 °C1006.20 hPa95.00 %7.56 km/hWSW4.70 °C5.50 °C5.70
08:30:006.10 °C1006.40 hPa95.00 %5.40 °C5.18
08:15:005.90 °C1006.40 hPa95.00 %5.20 °C5.18
08:00:005.80 °C1006.70 hPa95.00 %3.24 km/hWNW5.80 °C5.10 °C5.18
07:45:005.60 °C1006.80 hPa95.00 %4.90 °C5.18
07:30:005.60 °C1006.90 hPa95.00 %9.36 km/hWNW3.50 °C4.90 °C5.18
07:15:005.50 °C1007.00 hPa95.00 %2.52 km/hNW5.50 °C4.80 °C4.66
07:00:005.30 °C1007.20 hPa95.00 %4.60 °C4.66
06:45:005.10 °C1007.50 hPa94.00 %4.20 °C4.14
06:30:004.90 °C1007.70 hPa94.00 %4.00 °C4.14
06:15:004.60 °C1007.90 hPa94.00 %3.70 °C3.62
06:00:004.30 °C1008.00 hPa94.00 %3.40 °C3.62
05:45:003.90 °C1008.40 hPa94.00 %3.00 °C3.11
05:30:003.60 °C1008.80 hPa94.00 %2.70 °C3.11
05:15:003.60 °C1008.80 hPa94.00 %2.70 °C2.59
05:00:003.60 °C1009.00 hPa93.00 %2.60 °C2.07
04:45:003.60 °C1009.30 hPa93.00 %2.60 °C2.07
04:30:003.50 °C1009.60 hPa93.00 %3.96 km/hWSW3.50 °C2.50 °C2.07
04:15:003.60 °C1010.00 hPa93.00 %2.60 °C1.55
04:00:003.60 °C1010.30 hPa93.00 %3.24 km/hSW3.60 °C2.60 °C1.55
03:45:003.80 °C1010.60 hPa93.00 %2.80 °C1.03
03:30:003.90 °C1010.90 hPa93.00 %2.90 °C1.03
03:15:003.90 °C1011.20 hPa93.00 %2.90 °C1.03
03:00:004.00 °C1011.50 hPa94.00 %3.10 °C1.03
02:45:004.10 °C1012.00 hPa94.00 %3.20 °C0.52
02:30:004.10 °C1012.20 hPa94.00 %7.92 km/hWNW2.10 °C3.20 °C0.52
02:15:004.20 °C1012.50 hPa94.00 %3.30 °C0.52
02:00:004.20 °C1012.90 hPa94.00 %13.32 km/hSSW1.00 °C3.30 °C0.52
01:45:004.30 °C1013.00 hPa94.00 %18.36 km/hNW0.40 °C3.40 °C0.52
01:30:004.30 °C1013.10 hPa94.00 %11.52 km/hWSW1.50 °C3.40 °C0.52
01:15:004.30 °C1013.40 hPa94.00 %9.72 km/hWNW1.90 °C3.40 °C 
01:00:004.30 °C1013.60 hPa94.00 %7.56 km/hNW2.40 °C3.40 °C 
00:45:004.30 °C1013.90 hPa94.00 %18.72 km/hNW0.30 °C3.40 °C 
00:30:004.20 °C1014.00 hPa94.00 %2.16 km/hSW4.20 °C3.30 °C 
00:15:004.10 °C1014.30 hPa93.00 %3.24 km/hW4.10 °C3.10 °C 
00:00:004.10 °C1014.40 hPa93.00 %3.60 km/hSSW4.10 °C3.10 °C 

Permanenter Link zu dieser Seite: Wetter im Erzgebirge am 15.11.2015
Performance-Info: Die Erstellung der Seite / Statistik(en) / Tabelle(n) erforderte 5 Datenbankserver-Abfrage(n) und dauerte 98 Millisekunden. (Dieser Messwert ist von der Gesamt-Auslastung des Servers abhängig.)
Erzgebirge - Wetter | Erzgebirge - Wetter (Mobilgeräte) | Komplette Klimadatenbank